Providence, Rhode Island
Traffic Map
Current Weather Conditions
Providence, Rhode Island
Few Clouds
Few Clouds
88°
Feels Like: 93°
Wind Chill: 88° Ceiling: Unl
Heat Index: 93° Visibility: 10mi
Dew Point: 70° Wind: 12mph
Humidity: 55% Direction: 260° (W)
Pressure: 29.92in Gusts: 0mph
Raw Report DataKPVD 012051Z 26010KT 10SM FEW036 FEW050 FEW300 31/21 A2992 RMK AO2 SLP132 MDT CU DSNT E AND VC S T03110211 56010 $
Traffic Incident Summary
Active as of:
Severity:
Category:
InformationThere was an issue retrieving the traffic information for this location. Please try a different location or try again shortly.
Advertisements
Track Severe Weather on mobile